sensor_id;sensor_type;location;lat;lon;timestamp;P1;durP1;ratioP1;P2;durP2;ratioP2
57131;SDS011;43005;52.922;5.742;2023-08-17T00:01:02;7.13;;;5.03;;
57131;SDS011;43005;52.922;5.742;2023-08-17T00:03:30;8.52;;;4.80;;
57131;SDS011;43005;52.922;5.742;2023-08-17T00:05:57;12.35;;;5.28;;
57131;SDS011;43005;52.922;5.742;2023-08-17T00:08:24;10.93;;;6.30;;
57131;SDS011;43005;52.922;5.742;2023-08-17T00:10:52;10.05;;;6.40;;
57131;SDS011;43005;52.922;5.742;2023-08-17T00:13:19;9.35;;;6.00;;
57131;SDS011;43005;52.922;5.742;2023-08-17T00:15:45;9.00;;;5.95;;
57131;SDS011;43005;52.922;5.742;2023-08-17T00:18:12;11.18;;;6.60;;
57131;SDS011;43005;52.922;5.742;2023-08-17T00:20:41;11.73;;;6.68;;
57131;SDS011;43005;52.922;5.742;2023-08-17T00:23:09;11.77;;;7.32;;
57131;SDS011;43005;52.922;5.742;2023-08-17T00:25:36;12.45;;;7.55;;
57131;SDS011;43005;52.922;5.742;2023-08-17T00:28:03;11.70;;;6.88;;
57131;SDS011;43005;52.922;5.742;2023-08-17T00:30:31;11.23;;;6.55;;
57131;SDS011;43005;52.922;5.742;2023-08-17T00:33:01;10.00;;;7.47;;
57131;SDS011;43005;52.922;5.742;2023-08-17T00:35:28;11.55;;;8.57;;
57131;SDS011;43005;52.922;5.742;2023-08-17T00:37:56;14.13;;;7.90;;
57131;SDS011;43005;52.922;5.742;2023-08-17T00:40:23;9.88;;;7.38;;
57131;SDS011;43005;52.922;5.742;2023-08-17T00:42:50;12.15;;;7.03;;
57131;SDS011;43005;52.922;5.742;2023-08-17T00:45:17;13.30;;;7.88;;
57131;SDS011;43005;52.922;5.742;2023-08-17T00:47:44;10.30;;;7.35;;
57131;SDS011;43005;52.922;5.742;2023-08-17T00:50:12;12.75;;;7.70;;
57131;SDS011;43005;52.922;5.742;2023-08-17T00:52:41;14.27;;;6.95;;
57131;SDS011;43005;52.922;5.742;2023-08-17T00:55:10;8.77;;;6.40;;
57131;SDS011;43005;52.922;5.742;2023-08-17T00:57:38;9.13;;;7.65;;
57131;SDS011;43005;52.922;5.742;2023-08-17T01:00:07;12.68;;;7.60;;
57131;SDS011;43005;52.922;5.742;2023-08-17T01:02:36;11.65;;;7.55;;
57131;SDS011;43005;52.922;5.742;2023-08-17T01:05:04;14.15;;;7.78;;
57131;SDS011;43005;52.922;5.742;2023-08-17T01:07:32;10.40;;;7.53;;
57131;SDS011;43005;52.922;5.742;2023-08-17T01:09:59;11.52;;;6.50;;
57131;SDS011;43005;52.922;5.742;2023-08-17T01:12:30;9.38;;;6.65;;
57131;SDS011;43005;52.922;5.742;2023-08-17T01:15:00;13.65;;;7.45;;
57131;SDS011;43005;52.922;5.742;2023-08-17T01:17:33;13.25;;;7.43;;
57131;SDS011;43005;52.922;5.742;2023-08-17T01:20:04;12.57;;;7.53;;
57131;SDS011;43005;52.922;5.742;2023-08-17T01:22:34;10.95;;;7.20;;
57131;SDS011;43005;52.922;5.742;2023-08-17T01:25:05;11.35;;;8.18;;
57131;SDS011;43005;52.922;5.742;2023-08-17T01:27:36;14.18;;;7.40;;
57131;SDS011;43005;52.922;5.742;2023-08-17T01:30:05;11.65;;;7.45;;
57131;SDS011;43005;52.922;5.742;2023-08-17T01:32:35;11.95;;;8.10;;
57131;SDS011;43005;52.922;5.742;2023-08-17T01:35:08;13.13;;;7.60;;
57131;SDS011;43005;52.922;5.742;2023-08-17T01:37:41;11.82;;;8.35;;
57131;SDS011;43005;52.922;5.742;2023-08-17T01:40:11;13.63;;;7.55;;
57131;SDS011;43005;52.922;5.742;2023-08-17T01:42:39;11.13;;;7.65;;
57131;SDS011;43005;52.922;5.742;2023-08-17T01:45:09;12.15;;;8.18;;
57131;SDS011;43005;52.922;5.742;2023-08-17T01:47:36;9.20;;;7.45;;
57131;SDS011;43005;52.922;5.742;2023-08-17T01:50:04;12.02;;;7.05;;
57131;SDS011;43005;52.922;5.742;2023-08-17T01:52:31;10.70;;;7.30;;
57131;SDS011;43005;52.922;5.742;2023-08-17T01:54:58;15.48;;;8.05;;
57131;SDS011;43005;52.922;5.742;2023-08-17T01:57:27;10.05;;;7.40;;
57131;SDS011;43005;52.922;5.742;2023-08-17T01:59:53;11.00;;;7.53;;
57131;SDS011;43005;52.922;5.742;2023-08-17T02:02:20;13.73;;;7.72;;
57131;SDS011;43005;52.922;5.742;2023-08-17T02:04:47;12.02;;;8.02;;
57131;SDS011;43005;52.922;5.742;2023-08-17T02:07:14;10.82;;;7.50;;
57131;SDS011;43005;52.922;5.742;2023-08-17T02:09:41;9.77;;;7.57;;
57131;SDS011;43005;52.922;5.742;2023-08-17T02:12:08;14.82;;;7.88;;
57131;SDS011;43005;52.922;5.742;2023-08-17T02:14:36;13.98;;;8.00;;
57131;SDS011;43005;52.922;5.742;2023-08-17T02:17:03;10.85;;;7.57;;
57131;SDS011;43005;52.922;5.742;2023-08-17T02:19:31;11.65;;;8.20;;
57131;SDS011;43005;52.922;5.742;2023-08-17T02:21:58;12.38;;;8.52;;
57131;SDS011;43005;52.922;5.742;2023-08-17T02:24:25;11.60;;;7.88;;
57131;SDS011;43005;52.922;5.742;2023-08-17T02:26:52;10.80;;;6.90;;
57131;SDS011;43005;52.922;5.742;2023-08-17T02:29:19;9.15;;;7.43;;
57131;SDS011;43005;52.922;5.742;2023-08-17T02:31:47;11.60;;;7.78;;
57131;SDS011;43005;52.922;5.742;2023-08-17T02:34:14;11.00;;;8.02;;
57131;SDS011;43005;52.922;5.742;2023-08-17T02:36:41;10.23;;;8.00;;
57131;SDS011;43005;52.922;5.742;2023-08-17T02:39:08;11.43;;;7.47;;
57131;SDS011;43005;52.922;5.742;2023-08-17T02:41:35;9.65;;;6.97;;
57131;SDS011;43005;52.922;5.742;2023-08-17T02:44:02;10.80;;;7.75;;
57131;SDS011;43005;52.922;5.742;2023-08-17T02:46:29;11.00;;;7.55;;
57131;SDS011;43005;52.922;5.742;2023-08-17T02:48:58;17.13;;;8.00;;
57131;SDS011;43005;52.922;5.742;2023-08-17T02:51:25;10.90;;;7.38;;
57131;SDS011;43005;52.922;5.742;2023-08-17T02:53:51;11.60;;;7.38;;
57131;SDS011;43005;52.922;5.742;2023-08-17T02:56:18;12.15;;;7.95;;
57131;SDS011;43005;52.922;5.742;2023-08-17T02:58:45;11.15;;;7.15;;
57131;SDS011;43005;52.922;5.742;2023-08-17T03:01:12;10.07;;;7.00;;
57131;SDS011;43005;52.922;5.742;2023-08-17T03:03:39;10.52;;;6.95;;
57131;SDS011;43005;52.922;5.742;2023-08-17T03:06:08;10.60;;;7.60;;
57131;SDS011;43005;52.922;5.742;2023-08-17T03:08:34;10.60;;;7.03;;
57131;SDS011;43005;52.922;5.742;2023-08-17T03:11:01;9.52;;;7.35;;
57131;SDS011;43005;52.922;5.742;2023-08-17T03:13:28;9.75;;;7.07;;
57131;SDS011;43005;52.922;5.742;2023-08-17T03:15:55;11.73;;;7.05;;
57131;SDS011;43005;52.922;5.742;2023-08-17T03:18:22;10.20;;;6.88;;
57131;SDS011;43005;52.922;5.742;2023-08-17T03:20:49;12.18;;;7.85;;
57131;SDS011;43005;52.922;5.742;2023-08-17T03:23:17;11.70;;;8.02;;
57131;SDS011;43005;52.922;5.742;2023-08-17T03:25:44;14.38;;;8.07;;
57131;SDS011;43005;52.922;5.742;2023-08-17T03:28:11;9.82;;;7.90;;
57131;SDS011;43005;52.922;5.742;2023-08-17T03:30:38;13.02;;;7.57;;
57131;SDS011;43005;52.922;5.742;2023-08-17T03:33:05;13.32;;;7.82;;
57131;SDS011;43005;52.922;5.742;2023-08-17T03:35:33;12.98;;;7.75;;
57131;SDS011;43005;52.922;5.742;2023-08-17T03:38:00;11.63;;;7.50;;
57131;SDS011;43005;52.922;5.742;2023-08-17T03:40:28;13.93;;;8.02;;
57131;SDS011;43005;52.922;5.742;2023-08-17T03:42:55;12.73;;;7.70;;
57131;SDS011;43005;52.922;5.742;2023-08-17T03:45:22;9.75;;;7.82;;
57131;SDS011;43005;52.922;5.742;2023-08-17T03:47:48;12.85;;;8.05;;
57131;SDS011;43005;52.922;5.742;2023-08-17T03:50:15;13.50;;;7.80;;
57131;SDS011;43005;52.922;5.742;2023-08-17T03:52:42;11.23;;;8.15;;
57131;SDS011;43005;52.922;5.742;2023-08-17T03:55:09;14.07;;;7.90;;
57131;SDS011;43005;52.922;5.742;2023-08-17T03:57:38;11.57;;;8.05;;
57131;SDS011;43005;52.922;5.742;2023-08-17T04:00:05;13.00;;;8.27;;
57131;SDS011;43005;52.922;5.742;2023-08-17T04:02:35;12.18;;;8.45;;
57131;SDS011;43005;52.922;5.742;2023-08-17T04:05:02;13.27;;;8.68;;
57131;SDS011;43005;52.922;5.742;2023-08-17T04:07:29;12.93;;;8.90;;
57131;SDS011;43005;52.922;5.742;2023-08-17T04:09:56;11.30;;;8.52;;
57131;SDS011;43005;52.922;5.742;2023-08-17T04:12:23;14.80;;;8.73;;
57131;SDS011;43005;52.922;5.742;2023-08-17T04:14:51;12.93;;;8.40;;
57131;SDS011;43005;52.922;5.742;2023-08-17T04:17:18;12.43;;;7.95;;
57131;SDS011;43005;52.922;5.742;2023-08-17T04:19:46;10.55;;;7.40;;
57131;SDS011;43005;52.922;5.742;2023-08-17T04:22:13;12.65;;;8.45;;
57131;SDS011;43005;52.922;5.742;2023-08-17T04:24:40;14.00;;;8.40;;
57131;SDS011;43005;52.922;5.742;2023-08-17T04:27:06;9.63;;;7.75;;
57131;SDS011;43005;52.922;5.742;2023-08-17T04:29:33;12.05;;;7.63;;
57131;SDS011;43005;52.922;5.742;2023-08-17T04:32:02;11.60;;;7.60;;
57131;SDS011;43005;52.922;5.742;2023-08-17T04:34:29;11.18;;;8.15;;
57131;SDS011;43005;52.922;5.742;2023-08-17T04:36:56;13.95;;;7.53;;
57131;SDS011;43005;52.922;5.742;2023-08-17T04:39:23;12.40;;;8.13;;
57131;SDS011;43005;52.922;5.742;2023-08-17T04:41:50;11.23;;;7.93;;
57131;SDS011;43005;52.922;5.742;2023-08-17T04:44:17;11.52;;;7.15;;
57131;SDS011;43005;52.922;5.742;2023-08-17T04:46:44;11.35;;;7.32;;
57131;SDS011;43005;52.922;5.742;2023-08-17T04:49:12;10.93;;;7.53;;
57131;SDS011;43005;52.922;5.742;2023-08-17T04:51:39;15.13;;;8.27;;
57131;SDS011;43005;52.922;5.742;2023-08-17T04:54:06;10.80;;;8.05;;
57131;SDS011;43005;52.922;5.742;2023-08-17T04:56:33;12.45;;;7.53;;
57131;SDS011;43005;52.922;5.742;2023-08-17T04:59:00;13.95;;;7.13;;
57131;SDS011;43005;52.922;5.742;2023-08-17T05:01:26;10.32;;;7.13;;
57131;SDS011;43005;52.922;5.742;2023-08-17T05:03:53;11.55;;;7.10;;
57131;SDS011;43005;52.922;5.742;2023-08-17T05:06:22;11.38;;;6.97;;
57131;SDS011;43005;52.922;5.742;2023-08-17T05:08:49;10.30;;;6.60;;
57131;SDS011;43005;52.922;5.742;2023-08-17T05:11:16;14.23;;;7.05;;
57131;SDS011;43005;52.922;5.742;2023-08-17T05:13:42;10.80;;;6.80;;
57131;SDS011;43005;52.922;5.742;2023-08-17T05:16:09;11.02;;;6.80;;
57131;SDS011;43005;52.922;5.742;2023-08-17T05:18:36;12.35;;;6.40;;
57131;SDS011;43005;52.922;5.742;2023-08-17T05:21:03;9.98;;;6.20;;
57131;SDS011;43005;52.922;5.742;2023-08-17T05:23:32;8.07;;;5.70;;
57131;SDS011;43005;52.922;5.742;2023-08-17T05:25:59;8.13;;;6.15;;
57131;SDS011;43005;52.922;5.742;2023-08-17T05:28:26;11.00;;;6.68;;
57131;SDS011;43005;52.922;5.742;2023-08-17T05:30:53;10.35;;;5.50;;
57131;SDS011;43005;52.922;5.742;2023-08-17T05:33:20;9.52;;;6.05;;
57131;SDS011;43005;52.922;5.742;2023-08-17T05:35:49;10.13;;;6.03;;
57131;SDS011;43005;52.922;5.742;2023-08-17T05:38:19;9.82;;;6.25;;
57131;SDS011;43005;52.922;5.742;2023-08-17T05:40:48;9.52;;;5.43;;
57131;SDS011;43005;52.922;5.742;2023-08-17T05:43:21;8.85;;;7.05;;
57131;SDS011;43005;52.922;5.742;2023-08-17T05:45:48;10.77;;;5.57;;
57131;SDS011;43005;52.922;5.742;2023-08-17T05:48:15;11.05;;;5.82;;
57131;SDS011;43005;52.922;5.742;2023-08-17T05:50:42;8.50;;;4.95;;
57131;SDS011;43005;52.922;5.742;2023-08-17T05:53:09;7.57;;;4.43;;
57131;SDS011;43005;52.922;5.742;2023-08-17T05:55:36;8.95;;;5.28;;
57131;SDS011;43005;52.922;5.742;2023-08-17T05:58:04;8.55;;;5.03;;
57131;SDS011;43005;52.922;5.742;2023-08-17T06:00:31;8.10;;;4.60;;
57131;SDS011;43005;52.922;5.742;2023-08-17T06:02:58;8.38;;;4.40;;
57131;SDS011;43005;52.922;5.742;2023-08-17T06:05:27;7.93;;;3.83;;
57131;SDS011;43005;52.922;5.742;2023-08-17T06:07:54;10.32;;;4.43;;
57131;SDS011;43005;52.922;5.742;2023-08-17T06:10:22;7.18;;;3.80;;
57131;SDS011;43005;52.922;5.742;2023-08-17T06:12:50;7.03;;;3.90;;
57131;SDS011;43005;52.922;5.742;2023-08-17T06:15:19;8.35;;;3.30;;
57131;SDS011;43005;52.922;5.742;2023-08-17T06:17:45;6.15;;;2.70;;
57131;SDS011;43005;52.922;5.742;2023-08-17T06:20:15;5.28;;;2.70;;
57131;SDS011;43005;52.922;5.742;2023-08-17T06:22:43;5.30;;;2.72;;
57131;SDS011;43005;52.922;5.742;2023-08-17T06:25:10;9.23;;;2.50;;
57131;SDS011;43005;52.922;5.742;2023-08-17T06:27:37;8.23;;;2.65;;
57131;SDS011;43005;52.922;5.742;2023-08-17T06:30:04;6.13;;;2.65;;
57131;SDS011;43005;52.922;5.742;2023-08-17T06:32:34;7.07;;;2.70;;
57131;SDS011;43005;52.922;5.742;2023-08-17T06:35:01;6.30;;;2.28;;
57131;SDS011;43005;52.922;5.742;2023-08-17T06:37:28;5.75;;;2.60;;
57131;SDS011;43005;52.922;5.742;2023-08-17T06:39:55;5.40;;;2.53;;
57131;SDS011;43005;52.922;5.742;2023-08-17T06:42:22;5.95;;;2.20;;
57131;SDS011;43005;52.922;5.742;2023-08-17T06:44:49;7.60;;;2.20;;
57131;SDS011;43005;52.922;5.742;2023-08-17T06:47:16;5.47;;;2.42;;
57131;SDS011;43005;52.922;5.742;2023-08-17T06:49:44;5.55;;;2.42;;
57131;SDS011;43005;52.922;5.742;2023-08-17T06:52:11;4.60;;;2.20;;
57131;SDS011;43005;52.922;5.742;2023-08-17T06:54:38;6.55;;;1.80;;
57131;SDS011;43005;52.922;5.742;2023-08-17T06:57:05;10.40;;;2.60;;
57131;SDS011;43005;52.922;5.742;2023-08-17T06:59:32;4.30;;;1.77;;
57131;SDS011;43005;52.922;5.742;2023-08-17T07:01:59;5.53;;;2.00;;
57131;SDS011;43005;52.922;5.742;2023-08-17T07:04:26;4.43;;;2.03;;
57131;SDS011;43005;52.922;5.742;2023-08-17T07:06:54;6.07;;;2.35;;
57131;SDS011;43005;52.922;5.742;2023-08-17T07:09:21;5.57;;;2.38;;
57131;SDS011;43005;52.922;5.742;2023-08-17T07:11:49;5.35;;;2.20;;
57131;SDS011;43005;52.922;5.742;2023-08-17T07:14:16;5.78;;;2.30;;
57131;SDS011;43005;52.922;5.742;2023-08-17T07:16:43;5.32;;;1.92;;
57131;SDS011;43005;52.922;5.742;2023-08-17T07:19:10;6.10;;;2.40;;
57131;SDS011;43005;52.922;5.742;2023-08-17T07:21:38;6.57;;;2.30;;
57131;SDS011;43005;52.922;5.742;2023-08-17T07:24:13;5.72;;;2.00;;
57131;SDS011;43005;52.922;5.742;2023-08-17T07:26:41;8.43;;;2.53;;
57131;SDS011;43005;52.922;5.742;2023-08-17T07:29:09;7.05;;;2.20;;
57131;SDS011;43005;52.922;5.742;2023-08-17T07:31:36;6.70;;;2.10;;
57131;SDS011;43005;52.922;5.742;2023-08-17T07:34:03;7.32;;;2.20;;
57131;SDS011;43005;52.922;5.742;2023-08-17T07:36:30;6.70;;;2.10;;
57131;SDS011;43005;52.922;5.742;2023-08-17T07:38:58;4.90;;;2.00;;
57131;SDS011;43005;52.922;5.742;2023-08-17T07:41:26;8.45;;;2.10;;
57131;SDS011;43005;52.922;5.742;2023-08-17T07:43:53;8.10;;;1.95;;
57131;SDS011;43005;52.922;5.742;2023-08-17T07:46:20;4.50;;;1.80;;
57131;SDS011;43005;52.922;5.742;2023-08-17T07:48:47;5.70;;;1.90;;
57131;SDS011;43005;52.922;5.742;2023-08-17T07:51:14;6.68;;;2.05;;
57131;SDS011;43005;52.922;5.742;2023-08-17T07:53:41;4.15;;;1.85;;
57131;SDS011;43005;52.922;5.742;2023-08-17T07:56:08;5.07;;;1.90;;
57131;SDS011;43005;52.922;5.742;2023-08-17T07:58:36;6.00;;;2.00;;
57131;SDS011;43005;52.922;5.742;2023-08-17T08:01:02;4.40;;;1.80;;
57131;SDS011;43005;52.922;5.742;2023-08-17T08:03:30;6.70;;;2.22;;
57131;SDS011;43005;52.922;5.742;2023-08-17T08:05:57;6.93;;;2.78;;
57131;SDS011;43005;52.922;5.742;2023-08-17T08:08:24;5.75;;;1.90;;
57131;SDS011;43005;52.922;5.742;2023-08-17T08:10:52;4.75;;;2.00;;
57131;SDS011;43005;52.922;5.742;2023-08-17T08:13:19;6.53;;;2.13;;
57131;SDS011;43005;52.922;5.742;2023-08-17T08:15:48;6.63;;;1.85;;
57131;SDS011;43005;52.922;5.742;2023-08-17T08:18:15;4.80;;;2.00;;
57131;SDS011;43005;52.922;5.742;2023-08-17T08:20:42;6.10;;;1.85;;
57131;SDS011;43005;52.922;5.742;2023-08-17T08:23:09;5.72;;;1.90;;
57131;SDS011;43005;52.922;5.742;2023-08-17T08:25:36;6.35;;;2.20;;
57131;SDS011;43005;52.922;5.742;2023-08-17T08:28:03;5.03;;;2.10;;
57131;SDS011;43005;52.922;5.742;2023-08-17T08:30:30;5.90;;;1.85;;
57131;SDS011;43005;52.922;5.742;2023-08-17T08:32:59;8.68;;;2.60;;
57131;SDS011;43005;52.922;5.742;2023-08-17T08:35:26;6.15;;;2.35;;
57131;SDS011;43005;52.922;5.742;2023-08-17T08:37:54;6.28;;;2.10;;
57131;SDS011;43005;52.922;5.742;2023-08-17T08:40:26;7.97;;;2.60;;
57131;SDS011;43005;52.922;5.742;2023-08-17T08:42:54;4.82;;;1.88;;
57131;SDS011;43005;52.922;5.742;2023-08-17T08:45:22;7.68;;;2.58;;
57131;SDS011;43005;52.922;5.742;2023-08-17T08:47:49;5.00;;;1.80;;
57131;SDS011;43005;52.922;5.742;2023-08-17T08:50:19;7.72;;;2.08;;
57131;SDS011;43005;52.922;5.742;2023-08-17T08:52:49;4.55;;;1.77;;
57131;SDS011;43005;52.922;5.742;2023-08-17T08:55:26;6.90;;;2.05;;
57131;SDS011;43005;52.922;5.742;2023-08-17T08:57:56;8.07;;;2.13;;
57131;SDS011;43005;52.922;5.742;2023-08-17T09:00:24;7.05;;;2.10;;
57131;SDS011;43005;52.922;5.742;2023-08-17T09:02:52;5.22;;;2.10;;
57131;SDS011;43005;52.922;5.742;2023-08-17T09:05:21;6.00;;;2.35;;
57131;SDS011;43005;52.922;5.742;2023-08-17T09:07:49;5.63;;;2.70;;
57131;SDS011;43005;52.922;5.742;2023-08-17T09:10:16;5.47;;;1.90;;
57131;SDS011;43005;52.922;5.742;2023-08-17T09:12:45;3.88;;;1.52;;
57131;SDS011;43005;52.922;5.742;2023-08-17T09:15:12;7.45;;;1.90;;
57131;SDS011;43005;52.922;5.742;2023-08-17T09:17:39;6.13;;;1.83;;
57131;SDS011;43005;52.922;5.742;2023-08-17T09:20:08;7.20;;;1.90;;
57131;SDS011;43005;52.922;5.742;2023-08-17T09:22:40;6.60;;;1.75;;
57131;SDS011;43005;52.922;5.742;2023-08-17T09:25:08;6.18;;;1.80;;
57131;SDS011;43005;52.922;5.742;2023-08-17T09:27:35;3.55;;;1.60;;
57131;SDS011;43005;52.922;5.742;2023-08-17T09:30:03;4.13;;;1.77;;
57131;SDS011;43005;52.922;5.742;2023-08-17T09:32:31;5.57;;;1.92;;
57131;SDS011;43005;52.922;5.742;2023-08-17T09:35:00;4.35;;;1.65;;
57131;SDS011;43005;52.922;5.742;2023-08-17T09:37:28;5.93;;;2.10;;
57131;SDS011;43005;52.922;5.742;2023-08-17T09:39:57;3.05;;;1.48;;
57131;SDS011;43005;52.922;5.742;2023-08-17T09:42:23;6.13;;;2.30;;
57131;SDS011;43005;52.922;5.742;2023-08-17T09:44:52;5.93;;;1.85;;
57131;SDS011;43005;52.922;5.742;2023-08-17T09:47:20;4.80;;;1.73;;
57131;SDS011;43005;52.922;5.742;2023-08-17T09:49:48;5.43;;;1.88;;
57131;SDS011;43005;52.922;5.742;2023-08-17T09:52:15;6.18;;;1.60;;
57131;SDS011;43005;52.922;5.742;2023-08-17T09:54:42;4.57;;;1.73;;
57131;SDS011;43005;52.922;5.742;2023-08-17T09:57:13;3.35;;;1.60;;
57131;SDS011;43005;52.922;5.742;2023-08-17T09:59:40;4.80;;;1.80;;
57131;SDS011;43005;52.922;5.742;2023-08-17T10:04:41;4.32;;;1.80;;
57131;SDS011;43005;52.922;5.742;2023-08-17T10:07:08;4.32;;;1.67;;
57131;SDS011;43005;52.922;5.742;2023-08-17T10:09:39;5.03;;;1.65;;
57131;SDS011;43005;52.922;5.742;2023-08-17T10:12:15;3.78;;;1.70;;
57131;SDS011;43005;52.922;5.742;2023-08-17T10:14:45;7.00;;;2.00;;
57131;SDS011;43005;52.922;5.742;2023-08-17T10:17:18;6.70;;;2.20;;
57131;SDS011;43005;52.922;5.742;2023-08-17T10:19:52;4.95;;;1.90;;
57131;SDS011;43005;52.922;5.742;2023-08-17T10:22:26;7.47;;;2.00;;
57131;SDS011;43005;52.922;5.742;2023-08-17T10:24:57;9.00;;;2.25;;
57131;SDS011;43005;52.922;5.742;2023-08-17T10:27:27;4.32;;;1.40;;
57131;SDS011;43005;52.922;5.742;2023-08-17T10:29:56;3.80;;;1.70;;
57131;SDS011;43005;52.922;5.742;2023-08-17T10:32:25;4.28;;;1.75;;
57131;SDS011;43005;52.922;5.742;2023-08-17T10:34:53;7.28;;;2.42;;
57131;SDS011;43005;52.922;5.742;2023-08-17T10:37:20;5.60;;;2.13;;
57131;SDS011;43005;52.922;5.742;2023-08-17T10:39:49;4.32;;;1.70;;
57131;SDS011;43005;52.922;5.742;2023-08-17T10:42:30;6.18;;;2.10;;
57131;SDS011;43005;52.922;5.742;2023-08-17T10:44:58;6.38;;;1.67;;
57131;SDS011;43005;52.922;5.742;2023-08-17T10:47:27;6.18;;;1.88;;
57131;SDS011;43005;52.922;5.742;2023-08-17T10:49:56;5.32;;;1.88;;
57131;SDS011;43005;52.922;5.742;2023-08-17T10:52:27;7.40;;;2.00;;
57131;SDS011;43005;52.922;5.742;2023-08-17T10:54:57;3.25;;;1.50;;
57131;SDS011;43005;52.922;5.742;2023-08-17T10:57:34;5.57;;;1.60;;
57131;SDS011;43005;52.922;5.742;2023-08-17T11:00:13;6.97;;;1.98;;
57131;SDS011;43005;52.922;5.742;2023-08-17T11:02:43;7.85;;;1.60;;
57131;SDS011;43005;52.922;5.742;2023-08-17T11:05:10;3.70;;;1.52;;
57131;SDS011;43005;52.922;5.742;2023-08-17T11:07:39;5.22;;;1.77;;
57131;SDS011;43005;52.922;5.742;2023-08-17T11:10:26;10.95;;;3.03;;
57131;SDS011;43005;52.922;5.742;2023-08-17T11:12:56;7.10;;;2.53;;
57131;SDS011;43005;52.922;5.742;2023-08-17T11:15:26;5.93;;;1.80;;
57131;SDS011;43005;52.922;5.742;2023-08-17T11:18:02;7.07;;;2.38;;
57131;SDS011;43005;52.922;5.742;2023-08-17T11:20:30;6.38;;;2.10;;
57131;SDS011;43005;52.922;5.742;2023-08-17T11:22:57;5.72;;;2.08;;
57131;SDS011;43005;52.922;5.742;2023-08-17T11:25:25;4.50;;;1.75;;
57131;SDS011;43005;52.922;5.742;2023-08-17T11:27:52;4.45;;;1.65;;
57131;SDS011;43005;52.922;5.742;2023-08-17T11:30:21;5.47;;;1.80;;
57131;SDS011;43005;52.922;5.742;2023-08-17T11:32:50;7.30;;;3.05;;
57131;SDS011;43005;52.922;5.742;2023-08-17T11:35:19;4.38;;;1.65;;
57131;SDS011;43005;52.922;5.742;2023-08-17T11:37:47;5.63;;;1.70;;
57131;SDS011;43005;52.922;5.742;2023-08-17T11:40:15;4.72;;;1.58;;
57131;SDS011;43005;52.922;5.742;2023-08-17T11:42:42;7.70;;;1.88;;
57131;SDS011;43005;52.922;5.742;2023-08-17T11:45:09;7.15;;;2.08;;
57131;SDS011;43005;52.922;5.742;2023-08-17T11:47:38;6.05;;;1.77;;
57131;SDS011;43005;52.922;5.742;2023-08-17T11:50:06;4.32;;;1.48;;
57131;SDS011;43005;52.922;5.742;2023-08-17T11:52:35;6.43;;;2.33;;
57131;SDS011;43005;52.922;5.742;2023-08-17T11:55:02;7.18;;;1.95;;
57131;SDS011;43005;52.922;5.742;2023-08-17T11:57:30;5.88;;;1.80;;
57131;SDS011;43005;52.922;5.742;2023-08-17T11:59:58;5.18;;;1.70;;
57131;SDS011;43005;52.922;5.742;2023-08-17T12:02:26;6.07;;;2.00;;
57131;SDS011;43005;52.922;5.742;2023-08-17T12:04:55;7.65;;;2.17;;
57131;SDS011;43005;52.922;5.742;2023-08-17T12:07:23;7.72;;;1.90;;
57131;SDS011;43005;52.922;5.742;2023-08-17T12:09:50;6.63;;;1.50;;
57131;SDS011;43005;52.922;5.742;2023-08-17T12:12:19;6.07;;;2.10;;
57131;SDS011;43005;52.922;5.742;2023-08-17T12:14:48;5.40;;;1.83;;
57131;SDS011;43005;52.922;5.742;2023-08-17T12:17:15;4.47;;;2.35;;
57131;SDS011;43005;52.922;5.742;2023-08-17T12:19:43;4.82;;;2.10;;
57131;SDS011;43005;52.922;5.742;2023-08-17T12:22:12;4.53;;;1.92;;
57131;SDS011;43005;52.922;5.742;2023-08-17T12:24:39;5.78;;;1.70;;
57131;SDS011;43005;52.922;5.742;2023-08-17T12:27:06;3.95;;;1.77;;
57131;SDS011;43005;52.922;5.742;2023-08-17T12:29:34;8.13;;;2.20;;
57131;SDS011;43005;52.922;5.742;2023-08-17T12:32:12;6.32;;;1.90;;
57131;SDS011;43005;52.922;5.742;2023-08-17T12:34:40;8.63;;;2.17;;
57131;SDS011;43005;52.922;5.742;2023-08-17T12:37:08;4.53;;;1.70;;
57131;SDS011;43005;52.922;5.742;2023-08-17T12:39:37;5.38;;;2.10;;
57131;SDS011;43005;52.922;5.742;2023-08-17T12:42:04;5.70;;;2.47;;
57131;SDS011;43005;52.922;5.742;2023-08-17T12:44:32;6.38;;;1.98;;
57131;SDS011;43005;52.922;5.742;2023-08-17T12:46:59;6.88;;;2.10;;
57131;SDS011;43005;52.922;5.742;2023-08-17T12:49:26;7.32;;;1.90;;
57131;SDS011;43005;52.922;5.742;2023-08-17T12:51:53;5.38;;;1.85;;
57131;SDS011;43005;52.922;5.742;2023-08-17T12:54:20;7.50;;;2.17;;
57131;SDS011;43005;52.922;5.742;2023-08-17T12:56:48;5.90;;;1.85;;
57131;SDS011;43005;52.922;5.742;2023-08-17T12:59:15;5.15;;;2.03;;
57131;SDS011;43005;52.922;5.742;2023-08-17T13:01:42;6.88;;;2.40;;
57131;SDS011;43005;52.922;5.742;2023-08-17T13:04:09;5.40;;;2.10;;
57131;SDS011;43005;52.922;5.742;2023-08-17T13:06:36;8.40;;;2.65;;
57131;SDS011;43005;52.922;5.742;2023-08-17T13:09:04;7.35;;;2.10;;
57131;SDS011;43005;52.922;5.742;2023-08-17T13:11:31;5.85;;;1.90;;
57131;SDS011;43005;52.922;5.742;2023-08-17T13:14:00;5.70;;;1.75;;
57131;SDS011;43005;52.922;5.742;2023-08-17T13:16:27;7.22;;;2.15;;
57131;SDS011;43005;52.922;5.742;2023-08-17T13:18:54;7.32;;;1.88;;
57131;SDS011;43005;52.922;5.742;2023-08-17T13:21:21;9.10;;;1.95;;
57131;SDS011;43005;52.922;5.742;2023-08-17T13:23:48;5.78;;;2.10;;
57131;SDS011;43005;52.922;5.742;2023-08-17T13:26:15;5.65;;;1.83;;
57131;SDS011;43005;52.922;5.742;2023-08-17T13:28:42;6.78;;;1.92;;
57131;SDS011;43005;52.922;5.742;2023-08-17T13:31:10;7.85;;;2.03;;
57131;SDS011;43005;52.922;5.742;2023-08-17T13:33:37;7.85;;;2.38;;
57131;SDS011;43005;52.922;5.742;2023-08-17T13:36:04;6.95;;;2.13;;
57131;SDS011;43005;52.922;5.742;2023-08-17T13:38:32;7.88;;;2.78;;
57131;SDS011;43005;52.922;5.742;2023-08-17T13:40:59;5.68;;;2.17;;
57131;SDS011;43005;52.922;5.742;2023-08-17T13:43:26;9.07;;;2.38;;
57131;SDS011;43005;52.922;5.742;2023-08-17T13:45:53;5.68;;;2.15;;
57131;SDS011;43005;52.922;5.742;2023-08-17T13:48:21;5.22;;;2.03;;
57131;SDS011;43005;52.922;5.742;2023-08-17T13:50:48;6.43;;;2.60;;
57131;SDS011;43005;52.922;5.742;2023-08-17T13:53:16;7.82;;;2.92;;
57131;SDS011;43005;52.922;5.742;2023-08-17T13:55:44;7.50;;;2.40;;
57131;SDS011;43005;52.922;5.742;2023-08-17T13:58:11;9.57;;;2.83;;
57131;SDS011;43005;52.922;5.742;2023-08-17T14:00:38;7.03;;;2.20;;
57131;SDS011;43005;52.922;5.742;2023-08-17T14:03:05;8.73;;;2.70;;
57131;SDS011;43005;52.922;5.742;2023-08-17T14:05:33;5.65;;;2.75;;
57131;SDS011;43005;52.922;5.742;2023-08-17T14:08:00;7.30;;;3.20;;
57131;SDS011;43005;52.922;5.742;2023-08-17T14:10:29;6.25;;;2.53;;
57131;SDS011;43005;52.922;5.742;2023-08-17T14:12:56;7.35;;;2.30;;
57131;SDS011;43005;52.922;5.742;2023-08-17T14:15:23;4.85;;;2.38;;
57131;SDS011;43005;52.922;5.742;2023-08-17T14:17:50;9.57;;;2.97;;
57131;SDS011;43005;52.922;5.742;2023-08-17T14:20:17;8.30;;;3.05;;
57131;SDS011;43005;52.922;5.742;2023-08-17T14:22:45;7.63;;;3.30;;
57131;SDS011;43005;52.922;5.742;2023-08-17T14:25:13;8.35;;;2.97;;
57131;SDS011;43005;52.922;5.742;2023-08-17T14:27:41;7.20;;;2.60;;
57131;SDS011;43005;52.922;5.742;2023-08-17T14:30:10;7.47;;;2.90;;
57131;SDS011;43005;52.922;5.742;2023-08-17T14:32:37;6.00;;;2.47;;
57131;SDS011;43005;52.922;5.742;2023-08-17T14:35:04;5.13;;;2.50;;
57131;SDS011;43005;52.922;5.742;2023-08-17T14:37:31;6.85;;;2.35;;
57131;SDS011;43005;52.922;5.742;2023-08-17T14:40:02;7.55;;;2.50;;
57131;SDS011;43005;52.922;5.742;2023-08-17T14:42:29;7.50;;;2.28;;
57131;SDS011;43005;52.922;5.742;2023-08-17T14:44:56;8.95;;;2.50;;
57131;SDS011;43005;52.922;5.742;2023-08-17T14:47:23;6.85;;;2.75;;
57131;SDS011;43005;52.922;5.742;2023-08-17T14:49:50;12.45;;;2.72;;